Time;durP1;ratioP1;P1;durP2;ratioP2;P2;SDS_P1;SDS_P2;PMS_P1;PMS_P2;Temp;Humidity;BMP_temperature;BMP_pressure;BME280_temperature;BME280_humidity;BME280_pressure;Samples;Min_cycle;Max_cycle;Signal;HPM_P1;HPM_P2
2023/03/12 00:02:09;;;;;;;2.13;2.03;;;1.00;99.90;;;;;;5032929;28;20450;-73
2023/03/12 00:04:35;;;;;;;3.80;2.70;;;1.00;99.90;;;;;;5033885;28;20624;-70
2023/03/12 00:07:02;;;;;;;2.90;2.57;;;1.00;99.90;;;;;;5032332;28;20167;-73
2023/03/12 00:09:27;;;;;;;5.70;2.97;;;1.00;99.90;;;;;;5033510;28;20170;-70
2023/03/12 00:11:53;;;;;;;6.20;2.67;;;1.00;1.00;;;;;;5032763;28;20778;-70
2023/03/12 00:14:19;;;;;;;5.53;3.20;;;1.00;1.00;;;;;;5033921;28;20241;-73
2023/03/12 00:16:45;;;;;;;3.10;2.30;;;1.00;1.00;;;;;;5032490;28;20724;-71
2023/03/12 00:19:12;;;;;;;4.90;2.40;;;1.00;1.00;;;;;;5033577;28;20170;-72
2023/03/12 00:21:38;;;;;;;3.20;2.90;;;1.00;99.90;;;;;;5032603;28;21005;-73
2023/03/12 00:24:06;;;;;;;9.60;2.93;;;1.00;99.90;;;;;;5032427;28;20414;-71
2023/03/12 00:26:32;;;;;;;8.23;3.85;;;1.00;99.90;;;;;;5033451;28;20398;-70
2023/03/12 00:28:57;;;;;;;3.33;2.60;;;0.90;99.90;;;;;;5033372;28;20259;-73
2023/03/12 00:31:29;;;;;;;4.07;2.60;;;1.00;99.90;;;;;;5032582;28;20575;-74
2023/03/12 00:33:55;;;;;;;5.83;2.17;;;1.00;1.00;;;;;;5033248;28;20172;-73
2023/03/12 00:36:25;;;;;;;5.37;2.30;;;0.90;99.90;;;;;;5033417;28;20402;-71
2023/03/12 00:38:51;;;;;;;4.17;2.80;;;0.90;99.90;;;;;;5033418;28;20953;-73
2023/03/12 00:41:21;;;;;;;5.32;2.70;;;0.90;99.90;;;;;;5032416;28;20462;-71
2023/03/12 00:43:48;;;;;;;3.60;2.30;;;0.90;99.90;;;;;;5033068;28;20266;-73
2023/03/12 00:46:14;;;;;;;2.30;2.10;;;0.90;99.90;;;;;;5033348;28;20724;-73
2023/03/12 00:48:40;;;;;;;2.70;2.50;;;0.90;99.90;;;;;;5033300;28;20425;-74
2023/03/12 00:51:06;;;;;;;3.30;2.63;;;0.90;99.90;;;;;;5035952;28;20190;-71
2023/03/12 00:53:32;;;;;;;4.40;2.60;;;0.90;99.90;;;;;;5037106;28;20894;-74
2023/03/12 00:55:57;;;;;;;4.13;3.50;;;0.80;99.90;;;;;;5035834;28;20426;-71
2023/03/12 00:58:23;;;;;;;3.27;2.80;;;0.80;99.90;;;;;;5035719;28;20194;-70
2023/03/12 01:00:49;;;;;;;6.23;3.23;;;0.80;99.90;;;;;;5035144;28;20195;-71
2023/03/12 01:03:15;;;;;;;5.00;2.77;;;0.80;99.90;;;;;;5035728;28;20664;-74
2023/03/12 01:05:41;;;;;;;2.83;2.30;;;0.80;99.90;;;;;;5037048;28;20174;-71
2023/03/12 01:08:07;;;;;;;2.40;2.23;;;0.80;99.90;;;;;;5036725;28;20403;-73
2023/03/12 01:10:34;;;;;;;3.80;2.63;;;0.80;99.90;;;;;;5036209;28;20639;-71
2023/03/12 01:12:59;;;;;;;2.83;2.63;;;0.70;99.90;;;;;;5036715;28;20191;-74
2023/03/12 01:15:25;;;;;;;5.63;2.50;;;0.70;99.90;;;;;;5036809;28;20402;-71
2023/03/12 01:17:51;;;;;;;2.70;2.50;;;0.80;99.90;;;;;;5036725;28;20163;-72
2023/03/12 01:20:17;;;;;;;2.90;2.63;;;0.80;99.90;;;;;;5036002;28;20509;-71
2023/03/12 01:22:43;;;;;;;2.80;2.60;;;0.70;99.90;;;;;;5036575;28;20215;-73
2023/03/12 01:25:10;;;;;;;2.80;2.60;;;0.70;99.90;;;;;;5036541;28;20616;-74
2023/03/12 01:27:35;;;;;;;6.25;2.63;;;0.60;99.90;;;;;;5036583;28;20402;-70
2023/03/12 01:30:02;;;;;;;3.43;2.57;;;0.70;99.90;;;;;;5036187;28;20186;-74
2023/03/12 01:32:28;;;;;;;3.10;2.30;;;0.70;99.90;;;;;;5036010;28;20228;-71
2023/03/12 01:34:54;;;;;;;4.00;2.90;;;0.60;99.90;;;;;;5036398;28;20449;-71
2023/03/12 01:37:20;;;;;;;5.83;2.90;;;0.60;99.90;;;;;;5036367;28;20171;-73
2023/03/12 01:39:45;;;;;;;5.77;2.90;;;0.60;99.90;;;;;;5036371;28;20402;-70
2023/03/12 01:42:11;;;;;;;5.27;2.40;;;0.60;99.90;;;;;;5035220;28;20217;-72
2023/03/12 01:44:50;;;;;;;7.40;2.80;;;0.60;99.90;;;;;;5036107;28;20164;-71
2023/03/12 01:47:16;;;;;;;7.93;2.65;;;0.60;99.90;;;;;;5035028;28;20179;-74
2023/03/12 01:49:42;;;;;;;8.43;2.73;;;0.60;99.90;;;;;;5036037;28;20184;-71
2023/03/12 01:52:31;;;;;;;5.47;2.97;;;0.60;99.90;;;;;;5034154;28;20199;-73
2023/03/12 01:55:10;;;;;;;5.88;2.88;;;0.50;99.90;;;;;;5035918;28;20902;-74
2023/03/12 01:57:42;;;;;;;3.43;2.50;;;0.50;99.90;;;;;;5034651;28;20686;-71
2023/03/12 02:00:15;;;;;;;2.65;2.35;;;0.50;99.90;;;;;;5035217;28;20414;-75
2023/03/12 02:02:42;;;;;;;2.63;2.43;;;0.60;99.90;;;;;;5030476;28;20222;-71
2023/03/12 02:05:37;;;;;;;9.32;4.35;;;0.50;99.90;;;;;;5035790;28;20913;-70
2023/03/12 02:08:03;;;;;;;3.10;2.63;;;0.60;99.90;;;;;;5035975;28;20245;-70
2023/03/12 02:10:29;;;;;;;1.80;1.70;;;0.50;99.90;;;;;;5033899;28;20531;-70
2023/03/12 02:12:55;;;;;;;2.97;2.77;;;0.50;99.90;;;;;;5035519;28;20674;-73
2023/03/12 02:15:22;;;;;;;2.83;2.67;;;0.50;99.90;;;;;;5035756;28;20175;-73
2023/03/12 02:17:48;;;;;;;11.47;2.87;;;0.40;99.90;;;;;;5034462;28;20539;-74
2023/03/12 02:20:20;;;;;;;3.77;2.93;;;0.40;99.90;;;;;;5033820;28;20502;-76
2023/03/12 02:23:27;;;;;;;2.97;2.67;;;0.40;99.90;;;;;;5035327;28;20195;-70
2023/03/12 02:25:54;;;;;;;6.93;3.00;;;0.30;99.90;;;;;;4936173;29;20900;-70
2023/03/12 02:28:23;;;;;;;2.45;2.22;;;0.30;99.90;;;;;;5020615;28;20190;-73
2023/03/12 02:30:52;;;;;;;2.85;2.20;;;0.20;99.90;;;;;;5033551;28;20217;-70
2023/03/12 02:33:18;;;;;;;3.55;2.53;;;0.20;99.90;;;;;;5035355;28;20712;-74
2023/03/12 02:35:46;;;;;;;2.75;2.53;;;0.20;99.90;;;;;;5035263;28;20636;-73
2023/03/12 02:38:36;;;;;;;5.18;3.13;;;0.20;99.90;;;;;;5035213;28;20178;-70
2023/03/12 02:41:15;;;;;;;2.95;2.65;;;0.10;99.90;;;;;;5033177;28;20290;-74
2023/03/12 02:43:48;;;;;;;5.05;2.53;;;0.10;99.90;;;;;;5034991;28;20770;-74
2023/03/12 02:46:14;;;;;;;4.97;2.63;;;0.10;99.90;;;;;;5034994;28;20176;-70
2023/03/12 02:48:40;;;;;;;3.15;2.42;;;0.10;99.90;;;;;;5034941;28;20171;-75
2023/03/12 02:51:06;;;;;;;2.53;2.33;;;0.00;99.90;;;;;;5032843;28;20232;-74
2023/03/12 02:53:32;;;;;;;4.10;3.00;;;0.00;99.90;;;;;;5035126;28;20258;-71
2023/03/12 02:55:58;;;;;;;2.73;2.53;;;0.00;99.90;;;;;;5034892;28;20413;-71
2023/03/12 02:58:24;;;;;;;2.70;2.33;;;0.00;99.90;;;;;;5034864;28;20164;-73
2023/03/12 03:00:49;;;;;;;2.63;2.30;;;0.00;99.90;;;;;;5033820;28;20249;-70
2023/03/12 03:03:15;;;;;;;6.53;2.30;;;-0.10;99.90;;;;;;5034265;28;20279;-73
2023/03/12 03:05:41;;;;;;;2.40;2.30;;;-0.10;99.90;;;;;;5033654;28;20183;-70
2023/03/12 03:08:07;;;;;;;3.67;2.33;;;-0.10;99.90;;;;;;5034904;28;20163;-73
2023/03/12 03:10:32;;;;;;;2.50;2.30;;;-0.10;99.90;;;;;;5033927;28;20172;-74
2023/03/12 03:12:58;;;;;;;3.93;2.20;;;-0.10;99.90;;;;;;5033147;28;20513;-73
2023/03/12 03:15:24;;;;;;;2.27;2.07;;;-0.10;99.90;;;;;;5034519;28;20175;-73
2023/03/12 03:17:50;;;;;;;9.48;2.95;;;-0.10;99.90;;;;;;5034584;28;20163;-70
2023/03/12 03:20:16;;;;;;;4.73;2.53;;;-0.20;99.90;;;;;;5032357;28;20632;-70
2023/03/12 03:22:42;;;;;;;3.20;2.80;;;-0.20;99.90;;;;;;5034196;28;20717;-74
2023/03/12 03:25:08;;;;;;;2.60;2.33;;;-0.20;99.90;;;;;;5034289;28;20698;-70
2023/03/12 03:27:34;;;;;;;5.15;2.90;;;-0.20;99.90;;;;;;5034377;28;20194;-74
2023/03/12 03:30:01;;;;;;;3.63;2.50;;;-0.20;99.90;;;;;;5033990;28;20563;-70
2023/03/12 03:32:27;;;;;;;2.45;2.30;;;-0.20;99.90;;;;;;5033587;28;20414;-74
2023/03/12 03:34:52;;;;;;;3.03;2.60;;;-0.20;99.90;;;;;;5033072;28;20183;-75
2023/03/12 03:37:18;;;;;;;2.40;2.20;;;-0.20;99.90;;;;;;5032995;28;20507;-74
2023/03/12 03:39:44;;;;;;;2.70;2.50;;;-0.20;99.90;;;;;;5032728;28;20180;-74
2023/03/12 03:42:09;;;;;;;2.80;2.60;;;-0.20;99.90;;;;;;5033135;28;20571;-70
2023/03/12 03:44:35;;;;;;;2.47;2.27;;;-0.20;99.90;;;;;;5032859;28;20176;-70
2023/03/12 03:47:01;;;;;;;4.20;2.50;;;-0.20;99.90;;;;;;5033919;28;20253;-73
2023/03/12 03:49:27;;;;;;;6.50;2.57;;;-0.20;99.90;;;;;;5032490;28;20310;-70
2023/03/12 03:51:53;;;;;;;12.00;2.73;;;-0.30;99.90;;;;;;5033065;28;20422;-69
2023/03/12 03:54:19;;;;;;;2.50;2.30;;;-0.30;99.90;;;;;;5032695;28;20472;-70
2023/03/12 03:56:45;;;;;;;3.08;2.10;;;-0.30;99.90;;;;;;5032665;28;20179;-74
2023/03/12 03:59:10;;;;;;;5.33;2.50;;;-0.30;99.90;;;;;;5033624;28;20182;-73
2023/03/12 04:01:36;;;;;;;2.90;2.70;;;-0.30;99.90;;;;;;5032816;28;20461;-74
2023/03/12 04:04:03;;;;;;;2.87;2.47;;;-0.20;99.90;;;;;;5032267;28;20182;-69
2023/03/12 04:06:29;;;;;;;2.55;2.45;;;-0.20;99.90;;;;;;5032312;28;20406;-69
2023/03/12 04:08:56;;;;;;;2.85;2.65;;;-0.20;99.90;;;;;;5032302;28;20539;-69
2023/03/12 04:11:22;;;;;;;2.60;2.40;;;-0.10;99.90;;;;;;5032734;28;20667;-74
2023/03/12 04:13:48;;;;;;;5.63;2.95;;;-0.10;99.90;;;;;;5033590;28;20254;-70
2023/03/12 04:16:15;;;;;;;3.20;2.90;;;-0.10;99.90;;;;;;5032268;28;20266;-69
2023/03/12 04:18:41;;;;;;;2.60;2.38;;;-0.10;99.90;;;;;;5033646;28;20434;-70
2023/03/12 04:21:10;;;;;;;3.13;2.60;;;-0.10;99.90;;;;;;5031586;28;20254;-75
2023/03/12 04:23:37;;;;;;;3.08;2.42;;;-0.10;99.90;;;;;;5033275;28;20667;-74
2023/03/12 04:26:04;;;;;;;4.35;2.45;;;-0.10;99.90;;;;;;5033041;28;20175;-74
2023/03/12 04:28:29;;;;;;;7.22;2.90;;;-0.20;99.90;;;;;;5033732;28;20168;-74
2023/03/12 04:30:58;;;;;;;2.30;2.20;;;-0.20;99.90;;;;;;5032784;28;20175;-69
2023/03/12 04:33:25;;;;;;;2.95;2.40;;;-0.20;99.90;;;;;;5033354;28;20172;-69
2023/03/12 04:35:52;;;;;;;3.00;2.55;;;-0.30;99.90;;;;;;5033330;28;20174;-74
2023/03/12 04:38:22;;;;;;;3.35;2.60;;;-0.30;99.90;;;;;;5033370;28;20178;-70
2023/03/12 04:40:57;;;;;;;5.68;2.63;;;-0.30;99.90;;;;;;5032507;28;20176;-70
2023/03/12 04:43:23;;;;;;;3.78;3.05;;;-0.30;99.90;;;;;;5033143;28;20217;-69
2023/03/12 04:45:49;;;;;;;4.40;3.00;;;-0.40;99.90;;;;;;5033133;28;20575;-73
2023/03/12 04:48:15;;;;;;;7.80;2.80;;;-0.40;99.90;;;;;;5033143;28;20213;-74
2023/03/12 04:50:40;;;;;;;3.33;3.03;;;-0.40;99.90;;;;;;5032455;28;20406;-74
2023/03/12 04:53:06;;;;;;;4.03;3.07;;;-0.40;99.90;;;;;;5033091;28;20180;-70
2023/03/12 04:55:32;;;;;;;6.90;3.47;;;-0.40;99.90;;;;;;5033058;28;20178;-73
2023/03/12 04:57:57;;;;;;;2.83;2.63;;;-0.40;99.90;;;;;;5032993;28;20164;-75
2023/03/12 05:00:23;;;;;;;3.73;2.70;;;-0.40;99.90;;;;;;5031231;28;20176;-74
2023/03/12 05:02:49;;;;;;;8.93;2.30;;;-0.40;99.90;;;;;;5031621;28;20203;-74
2023/03/12 05:05:14;;;;;;;2.83;2.50;;;-0.40;99.90;;;;;;5033060;28;20223;-74
2023/03/12 05:07:40;;;;;;;2.90;2.70;;;-0.40;99.90;;;;;;5032925;28;20160;-70
2023/03/12 05:10:06;;;;;;;5.00;2.57;;;-0.40;99.90;;;;;;5032363;28;20195;-76
2023/03/12 05:12:32;;;;;;;3.10;2.87;;;-0.40;99.90;;;;;;5033024;28;20667;-74
2023/03/12 05:14:57;;;;;;;3.07;2.87;;;-0.50;99.90;;;;;;5031684;28;20407;-69
2023/03/12 05:17:23;;;;;;;3.40;2.97;;;-0.40;99.90;;;;;;5032944;28;20168;-69
2023/03/12 05:19:49;;;;;;;5.83;3.10;;;-0.40;99.90;;;;;;5032771;28;20176;-69
2023/03/12 05:22:14;;;;;;;5.60;3.00;;;-0.40;99.90;;;;;;5032287;28;20254;-69
2023/03/12 05:24:40;;;;;;;3.60;2.30;;;-0.40;99.90;;;;;;5032898;28;20159;-74
2023/03/12 05:27:07;;;;;;;6.37;3.20;;;-0.40;99.90;;;;;;5031781;28;20210;-74
2023/03/12 05:29:34;;;;;;;12.40;2.55;;;-0.40;99.90;;;;;;5033147;28;20520;-74
2023/03/12 05:32:01;;;;;;;4.30;2.90;;;-0.40;99.90;;;;;;5032109;28;20187;-75
2023/03/12 05:34:29;;;;;;;3.67;2.50;;;-0.40;99.90;;;;;;5032769;28;20214;-69
2023/03/12 05:36:58;;;;;;;4.85;2.53;;;-0.40;99.90;;;;;;5034193;28;20176;-75
2023/03/12 05:39:24;;;;;;;4.60;3.33;;;-0.40;99.90;;;;;;5036281;28;20156;-74
2023/03/12 05:41:52;;;;;;;3.50;3.30;;;-0.40;99.90;;;;;;5035412;28;20208;-69
2023/03/12 05:44:18;;;;;;;2.95;2.60;;;-0.40;99.90;;;;;;5036139;28;20168;-74
2023/03/12 05:46:44;;;;;;;4.45;2.83;;;-0.40;99.90;;;;;;5036159;28;20501;-69
2023/03/12 05:49:10;;;;;;;3.43;3.00;;;-0.40;99.90;;;;;;5036097;28;20168;-74
2023/03/12 05:51:36;;;;;;;2.90;2.70;;;-0.40;99.90;;;;;;5035277;28;20187;-69
2023/03/12 05:54:02;;;;;;;3.70;3.40;;;-0.30;99.90;;;;;;5036026;28;20394;-69
2023/03/12 05:56:28;;;;;;;4.43;3.60;;;-0.30;99.90;;;;;;5035883;28;20410;-69
2023/03/12 05:58:53;;;;;;;4.87;4.23;;;-0.30;99.90;;;;;;5036100;28;20785;-69
2023/03/12 06:01:23;;;;;;;8.30;4.90;;;-0.30;99.90;;;;;;5035076;28;20207;-74
2023/03/12 06:03:49;;;;;;;5.28;4.78;;;-0.20;99.90;;;;;;5035877;28;20505;-70
2023/03/12 06:06:16;;;;;;;5.22;4.80;;;-0.20;99.90;;;;;;5034619;28;20205;-70
2023/03/12 06:08:42;;;;;;;9.05;5.47;;;-0.20;99.90;;;;;;5035714;28;20167;-70
2023/03/12 06:11:08;;;;;;;5.45;4.75;;;-0.10;99.90;;;;;;5034963;28;20172;-74
2023/03/12 06:13:33;;;;;;;8.13;5.37;;;-0.10;99.90;;;;;;5035686;28;20178;-69
2023/03/12 06:16:05;;;;;;;7.63;5.50;;;-0.10;99.90;;;;;;5035827;28;20483;-74
2023/03/12 06:18:31;;;;;;;5.93;5.32;;;-0.10;99.90;;;;;;5035581;28;20258;-74
2023/03/12 06:21:16;;;;;;;8.07;6.00;;;-0.10;99.90;;;;;;5034794;28;20195;-69
2023/03/12 06:23:42;;;;;;;9.45;7.28;;;0.00;99.90;;;;;;5035502;28;20164;-69
2023/03/12 06:26:09;;;;;;;7.17;5.13;;;0.00;99.90;;;;;;5035566;28;20697;-69
2023/03/12 06:28:35;;;;;;;10.02;7.53;;;0.10;99.90;;;;;;5035357;28;20403;-70
2023/03/12 06:31:02;;;;;;;8.75;7.05;;;0.00;99.90;;;;;;5033638;28;20184;-74
2023/03/12 06:33:28;;;;;;;10.50;7.13;;;0.00;99.90;;;;;;5034294;28;20175;-70
2023/03/12 06:35:58;;;;;;;13.70;8.27;;;0.10;99.90;;;;;;5035435;28;20632;-69
2023/03/12 06:38:24;;;;;;;10.48;7.35;;;0.20;99.90;;;;;;5035228;28;20172;-75
2023/03/12 06:40:58;;;;;;;11.02;8.48;;;0.20;99.90;;;;;;5034345;28;20633;-69
2023/03/12 06:43:25;;;;;;;17.75;9.35;;;0.30;99.90;;;;;;5034728;28;20885;-73
2023/03/12 06:45:53;;;;;;;15.25;10.77;;;0.30;99.90;;;;;;5033751;28;20576;-68
2023/03/12 06:48:18;;;;;;;16.05;9.48;;;0.40;99.90;;;;;;5034516;28;20176;-73
2023/03/12 06:50:44;;;;;;;19.90;9.43;;;0.40;99.90;;;;;;5034076;28;20654;-72
2023/03/12 06:53:10;;;;;;;18.23;9.80;;;0.40;99.90;;;;;;5033945;28;20481;-71
2023/03/12 06:55:36;;;;;;;15.93;9.33;;;0.60;99.90;;;;;;5034848;28;20219;-71
2023/03/12 06:58:02;;;;;;;18.17;10.37;;;0.60;99.90;;;;;;5034828;28;20437;-71
2023/03/12 07:00:29;;;;;;;15.90;9.45;;;0.60;99.90;;;;;;5034078;28;20755;-74
2023/03/12 07:02:55;;;;;;;18.73;10.38;;;0.60;99.90;;;;;;5034441;28;20208;-71
2023/03/12 07:05:22;;;;;;;16.70;11.03;;;0.60;99.90;;;;;;5032170;28;20180;-74
2023/03/12 07:07:48;;;;;;;11.40;9.07;;;0.70;99.90;;;;;;5025442;28;20900;-74
2023/03/12 07:10:13;;;;;;;15.60;9.33;;;0.70;99.90;;;;;;5012822;28;20177;-75
2023/03/12 07:12:39;;;;;;;20.80;9.70;;;0.70;99.90;;;;;;5027048;28;20195;-75
2023/03/12 07:15:05;;;;;;;12.33;8.80;;;0.80;99.90;;;;;;5033045;28;20222;-74
2023/03/12 07:17:31;;;;;;;14.95;9.13;;;0.90;99.90;;;;;;5023017;28;20212;-71
2023/03/12 07:19:57;;;;;;;20.60;9.77;;;0.90;99.90;;;;;;5014911;28;20258;-70
2023/03/12 07:22:22;;;;;;;15.30;8.77;;;0.90;99.90;;;;;;5018338;28;20207;-75
2023/03/12 07:24:50;;;;;;;14.83;8.50;;;0.90;99.90;;;;;;5034231;28;20168;-73
2023/03/12 07:27:16;;;;;;;14.10;10.60;;;0.90;99.90;;;;;;5034206;28;20164;-75
2023/03/12 07:29:42;;;;;;;15.07;9.43;;;0.90;99.90;;;;;;5034084;28;20425;-75
2023/03/12 07:32:08;;;;;;;13.75;9.73;;;0.90;99.90;;;;;;5031963;28;20203;-74
2023/03/12 07:34:34;;;;;;;16.47;8.67;;;1.00;99.90;;;;;;5034232;28;20246;-74
2023/03/12 07:36:59;;;;;;;20.40;10.13;;;1.00;99.90;;;;;;5033125;28;20418;-71
2023/03/12 07:39:25;;;;;;;20.30;9.80;;;1.00;99.90;;;;;;5034035;28;20164;-71
2023/03/12 07:41:51;;;;;;;20.80;11.20;;;1.00;99.90;;;;;;5032958;28;20966;-74
2023/03/12 07:44:17;;;;;;;23.83;11.07;;;0.90;99.90;;;;;;5033830;28;20226;-75
2023/03/12 07:46:42;;;;;;;18.43;11.00;;;1.00;99.90;;;;;;5033933;28;20504;-73
2023/03/12 07:49:08;;;;;;;20.73;12.07;;;1.00;99.90;;;;;;5032526;28;20172;-70
2023/03/12 07:51:34;;;;;;;15.00;9.30;;;0.90;99.90;;;;;;5032768;28;20468;-73
2023/03/12 07:54:00;;;;;;;16.93;10.13;;;0.90;99.90;;;;;;5049188;28;20430;-73
2023/03/12 07:56:26;;;;;;;12.07;8.63;;;0.90;99.90;;;;;;5033765;28;20410;-70
2023/03/12 07:58:52;;;;;;;14.83;9.20;;;0.90;99.90;;;;;;5033028;28;20172;-73
2023/03/12 08:01:18;;;;;;;12.73;8.40;;;1.00;99.90;;;;;;5032323;28;20195;-74
2023/03/12 08:03:43;;;;;;;12.77;7.93;;;1.10;99.90;;;;;;5033774;28;20407;-71
2023/03/12 08:06:09;;;;;;;11.60;8.17;;;1.10;1.00;;;;;;5033647;28;20164;-74
2023/03/12 08:08:37;;;;;;;14.77;7.90;;;1.20;1.00;;;;;;5033652;28;20202;-70
2023/03/12 08:11:03;;;;;;;12.63;7.80;;;1.30;1.00;;;;;;5032854;28;20771;-73
2023/03/12 08:13:29;;;;;;;13.50;7.30;;;1.30;1.00;;;;;;5033377;28;20398;-72
2023/03/12 08:15:55;;;;;;;8.87;7.67;;;1.40;1.00;;;;;;5032175;28;20786;-71
2023/03/12 08:18:21;;;;;;;8.93;6.23;;;1.50;1.00;;;;;;5033789;28;20175;-73
2023/03/12 08:20:50;;;;;;;9.80;7.60;;;1.50;1.00;;;;;;5032684;28;20417;-74
2023/03/12 08:23:16;;;;;;;7.50;6.47;;;1.60;1.00;;;;;;5033350;28;20963;-74
2023/03/12 08:25:45;;;;;;;8.70;7.50;;;1.50;1.00;;;;;;5033323;28;20472;-72
2023/03/12 08:28:11;;;;;;;7.80;6.70;;;1.60;1.00;;;;;;5033531;28;20385;-74
2023/03/12 08:30:36;;;;;;;11.73;7.63;;;1.60;1.00;;;;;;5032786;28;20398;-71
2023/03/12 08:33:03;;;;;;;10.37;7.50;;;1.60;1.00;;;;;;5033389;28;20199;-72
2023/03/12 08:35:29;;;;;;;8.63;6.37;;;1.50;1.00;;;;;;5033340;28;20213;-74
2023/03/12 08:37:55;;;;;;;9.03;6.70;;;1.60;1.00;;;;;;5033356;28;20406;-73
2023/03/12 08:40:24;;;;;;;12.00;7.03;;;1.60;1.00;;;;;;5032656;28;20436;-72
2023/03/12 08:42:50;;;;;;;9.23;8.27;;;1.60;1.00;;;;;;5033050;28;20545;-72
2023/03/12 08:45:16;;;;;;;11.37;7.27;;;1.70;1.00;;;;;;5033232;28;20867;-73
2023/03/12 08:47:43;;;;;;;8.80;7.10;;;1.60;1.00;;;;;;5033101;28;20167;-74
2023/03/12 08:50:11;;;;;;;11.70;7.00;;;1.70;1.00;;;;;;5032606;28;20230;-72
2023/03/12 08:52:37;;;;;;;11.20;7.13;;;1.70;1.00;;;;;;5033137;28;20968;-72
2023/03/12 08:55:04;;;;;;;13.37;7.50;;;1.80;1.00;;;;;;5033124;28;20415;-72
2023/03/12 08:57:31;;;;;;;11.23;7.90;;;1.90;1.00;;;;;;5033071;28;20936;-73
2023/03/12 08:59:57;;;;;;;9.13;7.20;;;1.90;1.00;;;;;;5031698;28;20425;-74
2023/03/12 09:02:23;;;;;;;11.33;7.87;;;1.90;1.00;;;;;;5032473;28;20457;-73
2023/03/12 09:04:49;;;;;;;11.20;6.90;;;2.00;1.00;;;;;;5032999;28;20395;-73
2023/03/12 09:07:20;;;;;;;10.40;7.17;;;2.10;1.00;;;;;;5032762;28;20410;-74
2023/03/12 09:09:46;;;;;;;9.43;7.10;;;2.20;1.00;;;;;;5032831;28;20399;-73
2023/03/12 09:12:12;;;;;;;7.57;6.33;;;2.30;1.00;;;;;;5035599;28;20434;-73
2023/03/12 09:14:38;;;;;;;11.40;8.30;;;2.40;1.00;;;;;;5036934;28;20413;-73
2023/03/12 09:17:04;;;;;;;12.93;8.20;;;2.40;1.00;;;;;;5036617;28;20398;-73
2023/03/12 09:19:30;;;;;;;9.97;7.83;;;2.40;1.00;;;;;;5036701;28;20524;-73
2023/03/12 09:21:56;;;;;;;11.07;9.10;;;2.40;1.00;;;;;;5035658;28;20541;-72
2023/03/12 09:24:22;;;;;;;13.53;8.10;;;2.50;1.00;;;;;;5035250;28;20213;-73
2023/03/12 09:26:48;;;;;;;13.57;9.33;;;2.60;1.00;;;;;;5036687;28;20786;-73
2023/03/12 09:29:14;;;;;;;11.60;10.50;;;2.60;1.00;;;;;;5036454;28;20436;-72
2023/03/12 09:31:40;;;;;;;25.80;9.93;;;2.50;1.00;;;;;;5034804;28;20246;-72
2023/03/12 09:34:08;;;;;;;19.77;11.17;;;2.60;1.00;;;;;;5036472;28;20596;-72
2023/03/12 09:36:34;;;;;;;19.33;11.57;;;2.70;1.00;;;;;;5035245;28;20450;-73
2023/03/12 09:39:01;;;;;;;19.37;12.87;;;2.70;99.90;;;;;;5036362;28;20889;-72
2023/03/12 09:41:30;;;;;;;20.27;12.20;;;2.70;99.90;;;;;;5034338;28;20465;-72
2023/03/12 09:44:39;;;;;;;17.60;10.97;;;2.70;99.90;;;;;;5036087;28;20426;-73
2023/03/12 09:47:21;;;;;;;19.03;12.57;;;2.70;99.90;;;;;;5027970;28;20422;-74
2023/03/12 09:49:52;;;;;;;22.27;12.57;;;2.80;99.90;;;;;;5036149;28;20405;-71
2023/03/12 09:52:27;;;;;;;22.73;13.20;;;3.00;99.90;;;;;;5035436;28;20449;-72
2023/03/12 09:55:07;;;;;;;22.07;11.80;;;3.00;99.90;;;;;;5034984;28;20453;-73
2023/03/12 09:57:33;;;;;;;16.50;11.60;;;3.00;99.90;;;;;;5034621;28;20418;-72
2023/03/12 09:59:59;;;;;;;22.93;13.00;;;3.00;99.90;;;;;;5035762;28;20798;-74
2023/03/12 10:03:02;;;;;;;18.70;12.30;;;3.10;99.90;;;;;;5033932;28;20466;-71
2023/03/12 10:05:52;;;;;;;25.07;14.00;;;3.10;99.90;;;;;;5035796;28;20406;-72
2023/03/12 10:08:35;;;;;;;19.67;12.40;;;3.20;99.90;;;;;;5035624;28;20394;-73
2023/03/12 10:11:24;;;;;;;22.70;12.27;;;3.30;99.90;;;;;;5034929;28;21008;-73
2023/03/12 10:14:28;;;;;;;21.00;13.57;;;3.40;99.90;;;;;;5034248;28;20894;-73
2023/03/12 10:17:36;;;;;;;23.17;14.40;;;3.50;99.90;;;;;;5022523;28;20414;-74
2023/03/12 10:20:27;;;;;;;19.63;13.30;;;3.60;99.90;;;;;;5018262;28;20403;-73
2023/03/12 10:23:26;;;;;;;23.20;13.73;;;3.70;99.90;;;;;;5033249;28;20818;-73
2023/03/12 10:26:01;;;;;;;21.90;13.30;;;3.80;99.90;;;;;;5035374;28;20410;-71
2023/03/12 10:28:41;;;;;;;23.13;13.33;;;3.80;99.90;;;;;;5034409;28;20422;-73
2023/03/12 10:31:33;;;;;;;23.90;14.13;;;3.80;99.90;;;;;;5034741;28;20430;-71
2023/03/12 10:34:00;;;;;;;24.07;14.90;;;3.80;99.90;;;;;;5033383;28;20413;-71
2023/03/12 10:36:32;;;;;;;26.50;13.87;;;3.90;99.90;;;;;;5035218;28;20395;-72
2023/03/12 10:38:58;;;;;;;22.57;13.50;;;4.00;99.90;;;;;;5034266;28;20402;-71
2023/03/12 10:41:29;;;;;;;29.93;15.60;;;4.20;99.90;;;;;;5034378;28;20460;-70
2023/03/12 10:44:03;;;;;;;24.07;14.00;;;4.20;99.90;;;;;;5033809;28;20427;-72
2023/03/12 10:46:43;;;;;;;28.80;15.50;;;4.40;99.90;;;;;;5035146;28;20902;-72
2023/03/12 10:49:20;;;;;;;23.73;14.17;;;4.50;99.90;;;;;;5035081;28;20400;-72
2023/03/12 10:52:17;;;;;;;30.07;16.53;;;4.60;99.90;;;;;;5034164;28;20938;-72
2023/03/12 10:54:44;;;;;;;30.00;14.70;;;4.60;99.90;;;;;;5033711;28;20434;-71
2023/03/12 10:57:12;;;;;;;22.23;14.40;;;4.70;99.90;;;;;;5035102;28;20403;-72
2023/03/12 10:59:43;;;;;;;25.60;14.43;;;4.70;99.90;;;;;;5033581;28;20439;-73
2023/03/12 11:02:31;;;;;;;21.17;13.03;;;4.60;99.90;;;;;;5033927;28;20451;-72
2023/03/12 11:04:58;;;;;;;19.70;13.57;;;4.70;99.90;;;;;;5024950;28;20505;-74
2023/03/12 11:07:26;;;;;;;21.27;14.40;;;4.80;99.90;;;;;;5033404;28;20412;-72
2023/03/12 11:10:07;;;;;;;24.03;14.77;;;4.90;99.90;;;;;;5034611;28;20458;-73
2023/03/12 11:12:35;;;;;;;28.40;15.13;;;4.80;99.90;;;;;;5033086;28;20438;-72
2023/03/12 11:15:22;;;;;;;25.80;15.53;;;4.90;99.90;;;;;;5033194;28;20410;-73
2023/03/12 11:17:48;;;;;;;22.07;14.80;;;4.90;99.90;;;;;;5034719;28;20411;-72
2023/03/12 11:20:28;;;;;;;24.17;14.90;;;4.90;99.90;;;;;;5033834;28;20478;-72
2023/03/12 11:22:54;;;;;;;27.43;15.57;;;4.90;99.90;;;;;;5033928;28;20207;-73
2023/03/12 11:25:25;;;;;;;26.53;15.80;;;4.90;99.90;;;;;;5033568;28;20504;-71
2023/03/12 11:27:54;;;;;;;21.97;15.43;;;5.00;99.90;;;;;;5034365;28;20516;-72
2023/03/12 11:30:31;;;;;;;27.30;18.00;;;5.00;99.90;;;;;;5033772;28;20396;-73
2023/03/12 11:32:57;;;;;;;25.20;17.77;;;5.00;99.90;;;;;;5034120;28;20456;-74
2023/03/12 11:35:52;;;;;;;25.00;16.00;;;5.00;99.90;;;;;;5034042;28;20969;-73
2023/03/12 11:38:23;;;;;;;26.13;16.10;;;5.00;99.90;;;;;;5034301;28;20199;-74
2023/03/12 11:41:12;;;;;;;25.83;15.67;;;5.10;99.90;;;;;;5033436;28;20808;-74
2023/03/12 11:43:57;;;;;;;23.20;14.87;;;5.10;99.90;;;;;;5032669;28;20436;-74
2023/03/12 11:46:31;;;;;;;21.63;14.23;;;5.10;99.90;;;;;;5033955;28;20491;-72
2023/03/12 11:49:16;;;;;;;20.33;13.80;;;5.10;99.90;;;;;;5032901;28;20401;-73
2023/03/12 11:52:00;;;;;;;17.73;13.00;;;5.10;99.90;;;;;;5031875;28;20434;-68
2023/03/12 11:55:06;;;;;;;15.50;10.40;;;5.00;99.90;;;;;;5033832;28;20431;-71
2023/03/12 11:57:41;;;;;;;14.13;9.50;;;5.00;99.90;;;;;;5033785;28;21016;-70
2023/03/12 12:00:17;;;;;;;11.07;9.13;;;5.10;99.90;;;;;;5031817;28;20487;-71
2023/03/12 12:02:58;;;;;;;12.13;9.40;;;5.10;99.90;;;;;;5033640;28;20453;-72
2023/03/12 12:05:56;;;;;;;15.53;9.17;;;5.20;99.90;;;;;;5033800;28;20506;-71
2023/03/12 12:08:43;;;;;;;18.90;10.47;;;5.30;99.90;;;;;;5033669;28;20461;-72
2023/03/12 12:11:26;;;;;;;9.27;8.30;;;5.30;99.90;;;;;;5032603;28;20759;-71
2023/03/12 12:13:57;;;;;;;13.00;8.50;;;5.40;99.90;;;;;;5033834;28;20410;-73
2023/03/12 12:16:47;;;;;;;11.00;8.10;;;5.40;99.90;;;;;;5033463;28;20399;-71
2023/03/12 12:19:30;;;;;;;7.40;6.50;;;5.40;99.90;;;;;;5033315;28;20986;-70
2023/03/12 12:22:53;;;;;;;14.60;6.93;;;5.50;99.90;;;;;;5032609;28;20463;-71
2023/03/12 12:25:45;;;;;;;8.63;6.07;;;5.60;99.90;;;;;;4972421;28;20956;-73
2023/03/12 12:28:28;;;;;;;6.87;4.80;;;5.70;99.90;;;;;;4972690;28;20833;-72
2023/03/12 12:31:15;;;;;;;7.37;5.50;;;5.70;91.00;;;;;;5018116;28;20429;-71
2023/03/12 12:34:06;;;;;;;7.23;5.20;;;5.60;71.10;;;;;;5032217;28;20411;-73
2023/03/12 12:36:34;;;;;;;7.00;5.80;;;5.60;29.20;;;;;;5032130;28;20410;-71
2023/03/12 12:39:22;;;;;;;8.60;6.43;;;5.60;6.80;;;;;;5032131;28;20421;-70
2023/03/12 12:41:54;;;;;;;12.67;8.20;;;5.50;1.00;;;;;;5047703;28;20815;-70
2023/03/12 12:44:30;;;;;;;9.63;5.80;;;5.50;1.00;;;;;;5032952;28;20430;-70
2023/03/12 12:47:04;;;;;;;7.43;6.10;;;5.40;1.00;;;;;;5036638;28;20444;-70
2023/03/12 12:49:35;;;;;;;9.50;6.17;;;5.30;1.00;;;;;;5037298;28;20397;-71
2023/03/12 12:52:06;;;;;;;9.20;6.73;;;5.10;1.00;;;;;;5036604;28;20458;-71
2023/03/12 12:54:53;;;;;;;11.50;9.30;;;5.10;1.00;;;;;;5037191;28;20437;-73
2023/03/12 12:57:43;;;;;;;7.53;5.33;;;5.10;1.00;;;;;;5037204;28;20402;-73
2023/03/12 13:00:28;;;;;;;25.33;11.10;;;5.10;1.00;;;;;;5035362;28;20826;-70
2023/03/12 13:02:56;;;;;;;13.20;9.07;;;5.10;1.00;;;;;;5036833;28;20514;-69
2023/03/12 13:05:38;;;;;;;10.63;6.10;;;5.10;1.00;;;;;;5035687;28;20843;-74
2023/03/12 13:08:07;;;;;;;8.03;6.90;;;5.20;1.00;;;;;;5036906;28;20472;-72